EZY15JL LIRP-EGGW
Flight info
| Callsign | EZY15JL |
|---|---|
| Flight time | 2h 0m |
| Altitude | 36000 |
| Route | SPEZI DCT OTMUV DCT TESTO DCT AOSTA DCT ORSUD DCT MOLUS DCT IBODI DCT GOTED DCT TRO DCT CLM DCT KOPOR DCT SOSUN DCT SUBIP UM733 UNDUG |
| Aircraft | A319/M-SDE3FGHIRWY/LB1 |
Departure
| Time | 2026-05-05 13:51 |
|---|---|
| Airport | Pisa International Airport (LIRP) |
Arrival
| Time | 2026-05-05 15:51 |
|---|---|
| Airport | London Luton Airport (EGGW) |
| Time | Latitude | Longitude | Altitude | Speed | Heading |
|---|---|---|---|---|---|
| 2026-05-05 13:11 | 43.69761 | 10.40152 | 15 ft | 0 kts | 8° |
| 2026-05-05 13:40 | 43.69759 | 10.40151 | 15 ft | 2 kts | 8° |
| 2026-05-05 13:40 | 43.69734 | 10.40151 | 15 ft | 4 kts | 335° |
| 2026-05-05 13:40 | 43.69721 | 10.40168 | 16 ft | 4 kts | 253° |
| 2026-05-05 13:40 | 43.69725 | 10.40180 | 16 ft | 0 kts | 244° |
| 2026-05-05 13:44 | 43.69720 | 10.40167 | 16 ft | 3 kts | 244° |
| 2026-05-05 13:44 | 43.69704 | 10.40122 | 16 ft | 7 kts | 244° |
| 2026-05-05 13:44 | 43.69681 | 10.40037 | 16 ft | 11 kts | 260° |
| 2026-05-05 13:44 | 43.69666 | 10.39944 | 17 ft | 10 kts | 213° |
| 2026-05-05 13:45 | 43.69596 | 10.39930 | 15 ft | 10 kts | 188° |
| 2026-05-05 13:45 | 43.69522 | 10.39916 | 15 ft | 11 kts | 188° |
| 2026-05-05 13:45 | 43.69429 | 10.39894 | 16 ft | 14 kts | 189° |
| 2026-05-05 13:45 | 43.69332 | 10.39900 | 17 ft | 14 kts | 173° |
| 2026-05-05 13:46 | 43.69247 | 10.39915 | 21 ft | 10 kts | 173° |
| 2026-05-05 13:46 | 43.69179 | 10.39913 | 22 ft | 13 kts | 198° |
| 2026-05-05 13:46 | 43.69075 | 10.39816 | 21 ft | 22 kts | 216° |
| 2026-05-05 13:46 | 43.68935 | 10.39676 | 18 ft | 27 kts | 217° |
| 2026-05-05 13:47 | 43.68770 | 10.39502 | 19 ft | 32 kts | 217° |
| 2026-05-05 13:47 | 43.68582 | 10.39307 | 19 ft | 35 kts | 216° |
| 2026-05-05 13:47 | 43.68372 | 10.39092 | 17 ft | 40 kts | 216° |
| 2026-05-05 13:47 | 43.68138 | 10.38851 | 14 ft | 41 kts | 217° |
| 2026-05-05 13:48 | 43.67927 | 10.38633 | 14 ft | 33 kts | 217° |
| 2026-05-05 13:48 | 43.67753 | 10.38451 | 16 ft | 31 kts | 217° |
| 2026-05-05 13:48 | 43.67643 | 10.38345 | 13 ft | 13 kts | 194° |
| 2026-05-05 13:48 | 43.67587 | 10.38399 | 15 ft | 6 kts | 126° |
| 2026-05-05 13:49 | 43.67587 | 10.38401 | 15 ft | 0 kts | 126° |
| 2026-05-05 13:49 | 43.67584 | 10.38406 | 15 ft | 3 kts | 126° |
| 2026-05-05 13:49 | 43.67552 | 10.38466 | 16 ft | 11 kts | 127° |
| 2026-05-05 13:49 | 43.67531 | 10.38554 | 18 ft | 9 kts | 56° |
| 2026-05-05 13:50 | 43.67569 | 10.38594 | 19 ft | 10 kts | 36° |
| 2026-05-05 13:50 | 43.67848 | 10.38879 | 17 ft | 89 kts | 37° |
| 2026-05-05 13:50 | 43.68522 | 10.39571 | 19 ft | 150 kts | 37° |
| 2026-05-05 13:50 | 43.69454 | 10.40546 | 282 ft | 172 kts | 36° |
| 2026-05-05 13:51 | 43.70386 | 10.41560 | 915 ft | 172 kts | 37° |
| 2026-05-05 13:51 | 43.71383 | 10.42549 | 1330 ft | 188 kts | 25° |
| 2026-05-05 13:51 | 43.72690 | 10.43145 | 1626 ft | 208 kts | 8° |
| 2026-05-05 13:51 | 43.74170 | 10.43228 | 2202 ft | 216 kts | 351° |
| 2026-05-05 13:52 | 43.75602 | 10.42659 | 3013 ft | 213 kts | 330° |
| 2026-05-05 13:52 | 43.76801 | 10.41496 | 3850 ft | 209 kts | 310° |
| 2026-05-05 13:52 | 43.77647 | 10.39883 | 4626 ft | 207 kts | 291° |
| 2026-05-05 13:52 | 43.78073 | 10.38010 | 5460 ft | 204 kts | 276° |
| 2026-05-05 13:53 | 43.78325 | 10.36022 | 6123 ft | 214 kts | 277° |
| 2026-05-05 13:53 | 43.78595 | 10.33981 | 6892 ft | 217 kts | 277° |
| 2026-05-05 13:53 | 43.78871 | 10.31920 | 7664 ft | 219 kts | 277° |
| 2026-05-05 13:53 | 43.79149 | 10.29842 | 8442 ft | 220 kts | 277° |
| 2026-05-05 13:54 | 43.79428 | 10.27749 | 9271 ft | 222 kts | 277° |
| 2026-05-05 13:54 | 43.79712 | 10.25637 | 10077 ft | 224 kts | 277° |
| 2026-05-05 13:54 | 43.79999 | 10.23508 | 10825 ft | 226 kts | 276° |
| 2026-05-05 13:54 | 43.80254 | 10.21354 | 11574 ft | 227 kts | 270° |
| 2026-05-05 13:55 | 43.80216 | 10.19100 | 11988 ft | 245 kts | 264° |
| 2026-05-05 13:55 | 43.80112 | 10.16633 | 12263 ft | 269 kts | 264° |
| 2026-05-05 13:55 | 43.79989 | 10.13939 | 12501 ft | 292 kts | 264° |
| 2026-05-05 13:55 | 43.79857 | 10.11022 | 12702 ft | 315 kts | 264° |
| 2026-05-05 13:56 | 43.79724 | 10.07913 | 13112 ft | 329 kts | 264° |
| 2026-05-05 13:56 | 43.79594 | 10.04728 | 13788 ft | 334 kts | 264° |
| 2026-05-05 13:56 | 43.79463 | 10.01503 | 14440 ft | 337 kts | 264° |
| 2026-05-05 13:56 | 43.79329 | 9.98251 | 15098 ft | 340 kts | 264° |
| 2026-05-05 13:57 | 43.79189 | 9.94972 | 15736 ft | 343 kts | 264° |
| 2026-05-05 13:57 | 43.79047 | 9.91664 | 16392 ft | 346 kts | 264° |
| 2026-05-05 13:57 | 43.78903 | 9.88324 | 17028 ft | 349 kts | 264° |
| 2026-05-05 13:57 | 43.78758 | 9.84957 | 17658 ft | 353 kts | 263° |
| 2026-05-05 13:58 | 43.78609 | 9.81554 | 18297 ft | 356 kts | 263° |
| 2026-05-05 13:58 | 43.78455 | 9.78125 | 18860 ft | 358 kts | 263° |
| 2026-05-05 13:58 | 43.78298 | 9.74676 | 19454 ft | 360 kts | 263° |
| 2026-05-05 13:58 | 43.78138 | 9.71217 | 20067 ft | 361 kts | 263° |
| 2026-05-05 13:59 | 43.77981 | 9.64246 | 21265 ft | 367 kts | 273° |
| 2026-05-05 13:59 | 43.78527 | 9.60821 | 21830 ft | 374 kts | 285° |
| 2026-05-05 14:00 | 43.81360 | 9.54657 | 22946 ft | 393 kts | 310° |
| 2026-05-05 14:00 | 43.82721 | 9.52912 | 23322 ft | 395 kts | 311° |
| 2026-05-05 14:00 | 43.85408 | 9.49492 | 23938 ft | 398 kts | 311° |
| 2026-05-05 14:00 | 43.87450 | 9.46886 | 24349 ft | 400 kts | 311° |
| 2026-05-05 14:01 | 43.89499 | 9.44260 | 24749 ft | 403 kts | 310° |
| 2026-05-05 14:01 | 43.91563 | 9.41610 | 25123 ft | 406 kts | 310° |
| 2026-05-05 14:01 | 43.93637 | 9.38939 | 25499 ft | 408 kts | 310° |
| 2026-05-05 14:01 | 43.95720 | 9.36252 | 25873 ft | 411 kts | 310° |
| 2026-05-05 14:02 | 43.97821 | 9.33540 | 26251 ft | 413 kts | 310° |
| 2026-05-05 14:02 | 43.99931 | 9.30814 | 26626 ft | 416 kts | 310° |
| 2026-05-05 14:02 | 44.02055 | 9.28070 | 26996 ft | 418 kts | 310° |
| 2026-05-05 14:02 | 44.04193 | 9.25311 | 27361 ft | 421 kts | 310° |
| 2026-05-05 14:03 | 44.06345 | 9.22529 | 27716 ft | 424 kts | 310° |
| 2026-05-05 14:03 | 44.08510 | 9.19724 | 28059 ft | 427 kts | 310° |
| 2026-05-05 14:03 | 44.10688 | 9.16902 | 28405 ft | 429 kts | 310° |
| 2026-05-05 14:03 | 44.12876 | 9.14061 | 28745 ft | 432 kts | 310° |
| 2026-05-05 14:04 | 44.15077 | 9.11198 | 29078 ft | 434 kts | 310° |
| 2026-05-05 14:04 | 44.17286 | 9.08322 | 29424 ft | 436 kts | 310° |
| 2026-05-05 14:04 | 44.19552 | 9.05482 | 29765 ft | 442 kts | 314° |
| 2026-05-05 14:04 | 44.22072 | 9.02967 | 30074 ft | 448 kts | 318° |
| 2026-05-05 14:05 | 44.24646 | 9.00496 | 30338 ft | 450 kts | 318° |
| 2026-05-05 14:05 | 44.27233 | 8.98013 | 30614 ft | 452 kts | 318° |
| 2026-05-05 14:05 | 44.29830 | 8.95522 | 30921 ft | 453 kts | 318° |
| 2026-05-05 14:05 | 44.32427 | 8.93032 | 31286 ft | 452 kts | 318° |
| 2026-05-05 14:06 | 44.35016 | 8.90544 | 31649 ft | 452 kts | 318° |
| 2026-05-05 14:06 | 44.37601 | 8.88051 | 32012 ft | 451 kts | 318° |
| 2026-05-05 14:06 | 44.40181 | 8.85557 | 32375 ft | 451 kts | 318° |
| 2026-05-05 14:06 | 44.42756 | 8.83058 | 32739 ft | 450 kts | 318° |
| 2026-05-05 14:07 | 44.45293 | 8.80599 | 33110 ft | 450 kts | 318° |
| 2026-05-05 14:07 | 44.47864 | 8.78112 | 33491 ft | 449 kts | 318° |
| 2026-05-05 14:07 | 44.50434 | 8.75624 | 33879 ft | 449 kts | 318° |
| 2026-05-05 14:07 | 44.52995 | 8.73133 | 34226 ft | 448 kts | 318° |
| 2026-05-05 14:08 | 44.55551 | 8.70636 | 34561 ft | 448 kts | 317° |
| 2026-05-05 14:08 | 44.58106 | 8.68135 | 34838 ft | 448 kts | 317° |
| 2026-05-05 14:08 | 44.60654 | 8.65622 | 35138 ft | 447 kts | 317° |
| 2026-05-05 14:08 | 44.63161 | 8.63042 | 35422 ft | 446 kts | 316° |
| 2026-05-05 14:09 | 44.65625 | 8.60407 | 35718 ft | 444 kts | 315° |
| 2026-05-05 14:09 | 44.68060 | 8.57743 | 35932 ft | 444 kts | 315° |
| 2026-05-05 14:09 | 44.72915 | 8.52407 | 35961 ft | 442 kts | 315° |
| 2026-05-05 14:10 | 44.77787 | 8.47115 | 35961 ft | 443 kts | 315° |
| 2026-05-05 14:10 | 44.82680 | 8.41845 | 35961 ft | 443 kts | 315° |
| 2026-05-05 14:11 | 44.87565 | 8.36578 | 35964 ft | 444 kts | 315° |
| 2026-05-05 14:11 | 44.92469 | 8.31254 | 35972 ft | 445 kts | 315° |
| 2026-05-05 14:12 | 44.97373 | 8.25908 | 35965 ft | 445 kts | 315° |
| 2026-05-05 14:12 | 45.02284 | 8.20558 | 35963 ft | 446 kts | 315° |
| 2026-05-05 14:13 | 45.07185 | 8.15195 | 35963 ft | 446 kts | 315° |
| 2026-05-05 14:13 | 45.12089 | 8.09826 | 35972 ft | 446 kts | 315° |
| 2026-05-05 14:14 | 45.16998 | 8.04445 | 35981 ft | 446 kts | 314° |
| 2026-05-05 14:14 | 45.21910 | 7.99050 | 35974 ft | 447 kts | 314° |
| 2026-05-05 14:15 | 45.26826 | 7.93627 | 35984 ft | 448 kts | 314° |
| 2026-05-05 14:15 | 45.31744 | 7.88185 | 36004 ft | 448 kts | 314° |
| 2026-05-05 14:16 | 45.36658 | 7.82732 | 35998 ft | 447 kts | 314° |
| 2026-05-05 14:16 | 45.40734 | 7.78209 | 35987 ft | 447 kts | 314° |
| 2026-05-05 14:17 | 45.46435 | 7.71871 | 35989 ft | 448 kts | 314° |
| 2026-05-05 14:17 | 45.51342 | 7.66403 | 35981 ft | 448 kts | 314° |
| 2026-05-05 14:18 | 45.56247 | 7.60923 | 35989 ft | 448 kts | 314° |
| 2026-05-05 14:18 | 45.60352 | 7.56318 | 35978 ft | 448 kts | 314° |
| 2026-05-05 14:19 | 45.65250 | 7.50814 | 35971 ft | 448 kts | 314° |
| 2026-05-05 14:19 | 45.70156 | 7.45298 | 35962 ft | 448 kts | 314° |
| 2026-05-05 14:20 | 45.75062 | 7.39775 | 35987 ft | 448 kts | 314° |
| 2026-05-05 14:20 | 45.79964 | 7.34243 | 35970 ft | 449 kts | 315° |
| 2026-05-05 14:21 | 45.85020 | 7.28923 | 35953 ft | 452 kts | 317° |
| 2026-05-05 14:21 | 45.90203 | 7.23778 | 35942 ft | 454 kts | 318° |
| 2026-05-05 14:22 | 45.95382 | 7.18605 | 35933 ft | 453 kts | 318° |
| 2026-05-05 14:22 | 46.00526 | 7.13371 | 35906 ft | 453 kts | 318° |
| 2026-05-05 14:23 | 46.05655 | 7.08086 | 35883 ft | 454 kts | 318° |
| 2026-05-05 14:23 | 46.10789 | 7.02785 | 35876 ft | 454 kts | 318° |
| 2026-05-05 14:24 | 46.15928 | 6.97485 | 35885 ft | 454 kts | 319° |
| 2026-05-05 14:24 | 46.21070 | 6.92190 | 35864 ft | 455 kts | 319° |
| 2026-05-05 14:25 | 46.26219 | 6.86858 | 35877 ft | 456 kts | 318° |
| 2026-05-05 14:25 | 46.31375 | 6.81508 | 35881 ft | 456 kts | 318° |
| 2026-05-05 14:26 | 46.36528 | 6.76156 | 35892 ft | 456 kts | 319° |
| 2026-05-05 14:26 | 46.41675 | 6.70788 | 35882 ft | 456 kts | 319° |
| 2026-05-05 14:27 | 46.46426 | 6.64911 | 35874 ft | 449 kts | 308° |
| 2026-05-05 14:27 | 46.50781 | 6.58321 | 35871 ft | 449 kts | 308° |
| 2026-05-05 14:28 | 46.55079 | 6.51803 | 35873 ft | 450 kts | 308° |
| 2026-05-05 14:28 | 46.59405 | 6.45235 | 35892 ft | 450 kts | 309° |
| 2026-05-05 14:29 | 46.63763 | 6.38607 | 35881 ft | 451 kts | 309° |
| 2026-05-05 14:29 | 46.68094 | 6.32009 | 35873 ft | 451 kts | 309° |
| 2026-05-05 14:30 | 46.72388 | 6.25436 | 35869 ft | 451 kts | 309° |
| 2026-05-05 14:30 | 46.76712 | 6.18815 | 35870 ft | 451 kts | 309° |
| 2026-05-05 14:31 | 46.81034 | 6.12180 | 35875 ft | 451 kts | 309° |
| 2026-05-05 14:31 | 46.85346 | 6.05516 | 35882 ft | 452 kts | 309° |
| 2026-05-05 14:32 | 46.89663 | 5.98832 | 35869 ft | 452 kts | 309° |
| 2026-05-05 14:32 | 46.94026 | 5.92186 | 35864 ft | 455 kts | 314° |
| 2026-05-05 14:33 | 46.99313 | 5.86974 | 35859 ft | 463 kts | 329° |
| 2026-05-05 14:33 | 47.05031 | 5.82612 | 35860 ft | 464 kts | 329° |
| 2026-05-05 14:34 | 47.10743 | 5.78205 | 35854 ft | 464 kts | 329° |
| 2026-05-05 14:34 | 47.16452 | 5.73786 | 35863 ft | 464 kts | 329° |
| 2026-05-05 14:35 | 47.22174 | 5.69362 | 35847 ft | 465 kts | 329° |
| 2026-05-05 14:35 | 47.27895 | 5.64931 | 35845 ft | 465 kts | 329° |
| 2026-05-05 14:36 | 47.33623 | 5.60471 | 35834 ft | 465 kts | 329° |
| 2026-05-05 14:36 | 47.39310 | 5.56034 | 35834 ft | 466 kts | 329° |
| 2026-05-05 14:37 | 47.45040 | 5.51559 | 35834 ft | 466 kts | 329° |
| 2026-05-05 14:37 | 47.50660 | 5.46829 | 35823 ft | 463 kts | 321° |
| 2026-05-05 14:38 | 47.55214 | 5.40242 | 35833 ft | 456 kts | 303° |
| 2026-05-05 14:38 | 47.58983 | 5.32680 | 35818 ft | 457 kts | 303° |
| 2026-05-05 14:39 | 47.62755 | 5.25102 | 35811 ft | 457 kts | 303° |
| 2026-05-05 14:39 | 47.66525 | 5.17502 | 35811 ft | 458 kts | 303° |
| 2026-05-05 14:40 | 47.70287 | 5.09877 | 35807 ft | 458 kts | 303° |
| 2026-05-05 14:40 | 47.74052 | 5.02234 | 35818 ft | 459 kts | 303° |
| 2026-05-05 14:41 | 47.77816 | 4.94567 | 35812 ft | 459 kts | 303° |
| 2026-05-05 14:41 | 47.81577 | 4.86884 | 35802 ft | 460 kts | 303° |
| 2026-05-05 14:42 | 47.85336 | 4.79187 | 35806 ft | 460 kts | 303° |
| 2026-05-05 14:42 | 47.89089 | 4.71474 | 35801 ft | 460 kts | 303° |
| 2026-05-05 14:43 | 47.92840 | 4.63751 | 35817 ft | 460 kts | 303° |
| 2026-05-05 14:43 | 47.96582 | 4.56017 | 35800 ft | 460 kts | 303° |
| 2026-05-05 14:44 | 48.00318 | 4.48261 | 35798 ft | 460 kts | 303° |
| 2026-05-05 14:44 | 48.04053 | 4.40506 | 35791 ft | 460 kts | 303° |
| 2026-05-05 14:45 | 48.07787 | 4.32736 | 35792 ft | 460 kts | 303° |
| 2026-05-05 14:45 | 48.11518 | 4.24954 | 35808 ft | 460 kts | 304° |
| 2026-05-05 14:46 | 48.15239 | 4.17171 | 35804 ft | 460 kts | 304° |
| 2026-05-05 14:46 | 48.18951 | 4.09365 | 35800 ft | 460 kts | 304° |
| 2026-05-05 14:47 | 48.22660 | 4.01545 | 35800 ft | 460 kts | 304° |
| 2026-05-05 14:47 | 48.26603 | 3.93984 | 35799 ft | 462 kts | 313° |
| 2026-05-05 14:48 | 48.31044 | 3.87017 | 35799 ft | 462 kts | 312° |
| 2026-05-05 14:48 | 48.35477 | 3.80022 | 35796 ft | 462 kts | 312° |
| 2026-05-05 14:49 | 48.39876 | 3.73060 | 35780 ft | 462 kts | 312° |
| 2026-05-05 14:49 | 48.44299 | 3.66031 | 35780 ft | 463 kts | 312° |
| 2026-05-05 14:50 | 48.48728 | 3.58984 | 35790 ft | 464 kts | 312° |
| 2026-05-05 14:50 | 48.53160 | 3.51920 | 35784 ft | 463 kts | 312° |
| 2026-05-05 14:51 | 48.57576 | 3.44854 | 35801 ft | 463 kts | 312° |
| 2026-05-05 14:51 | 48.61991 | 3.37776 | 35792 ft | 463 kts | 312° |
| 2026-05-05 14:52 | 48.66406 | 3.30688 | 35790 ft | 463 kts | 312° |
| 2026-05-05 14:52 | 48.70806 | 3.23585 | 35793 ft | 463 kts | 312° |
| 2026-05-05 14:53 | 48.75205 | 3.16459 | 35797 ft | 463 kts | 312° |
| 2026-05-05 14:53 | 48.79598 | 3.09327 | 35803 ft | 463 kts | 312° |
| 2026-05-05 14:54 | 48.84093 | 3.02338 | 35813 ft | 463 kts | 320° |
| 2026-05-05 14:54 | 48.89475 | 2.97008 | 35817 ft | 463 kts | 330° |
| 2026-05-05 14:55 | 48.95067 | 2.92141 | 35819 ft | 463 kts | 330° |
| 2026-05-05 14:55 | 49.00649 | 2.87263 | 35812 ft | 462 kts | 330° |
| 2026-05-05 14:56 | 49.06226 | 2.82362 | 35810 ft | 463 kts | 330° |
| 2026-05-05 14:56 | 49.11800 | 2.77442 | 35818 ft | 463 kts | 329° |
| 2026-05-05 14:57 | 49.17370 | 2.72516 | 35818 ft | 463 kts | 329° |
| 2026-05-05 14:57 | 49.22941 | 2.67590 | 35809 ft | 463 kts | 329° |
| 2026-05-05 14:58 | 49.28513 | 2.62639 | 35827 ft | 463 kts | 329° |
| 2026-05-05 14:58 | 49.34089 | 2.57676 | 35827 ft | 463 kts | 329° |
| 2026-05-05 14:59 | 49.39661 | 2.52698 | 35832 ft | 464 kts | 329° |
| 2026-05-05 14:59 | 49.45200 | 2.47737 | 35840 ft | 464 kts | 329° |
| 2026-05-05 15:00 | 49.49812 | 2.43414 | 35840 ft | 463 kts | 323° |
| 2026-05-05 15:00 | 49.52995 | 2.39069 | 35840 ft | 462 kts | 311° |
| 2026-05-05 15:00 | 49.55079 | 2.35228 | 35841 ft | 461 kts | 307° |
| 2026-05-05 15:01 | 49.59120 | 2.27549 | 35845 ft | 461 kts | 308° |
| 2026-05-05 15:01 | 49.63166 | 2.19875 | 35855 ft | 462 kts | 308° |
| 2026-05-05 15:02 | 49.67185 | 2.12227 | 35852 ft | 462 kts | 308° |
| 2026-05-05 15:02 | 49.71220 | 2.04517 | 35852 ft | 462 kts | 307° |
| 2026-05-05 15:03 | 49.75252 | 1.96786 | 35851 ft | 462 kts | 307° |
| 2026-05-05 15:03 | 49.79277 | 1.89054 | 35856 ft | 461 kts | 307° |
| 2026-05-05 15:04 | 49.83289 | 1.81325 | 35857 ft | 461 kts | 307° |
| 2026-05-05 15:04 | 49.86618 | 1.74878 | 35874 ft | 461 kts | 307° |
| 2026-05-05 15:05 | 49.93284 | 1.61927 | 35882 ft | 460 kts | 307° |
| 2026-05-05 15:06 | 49.96596 | 1.55471 | 35882 ft | 460 kts | 307° |
| 2026-05-05 15:06 | 50.01032 | 1.48333 | 35887 ft | 461 kts | 317° |
| 2026-05-05 15:07 | 50.05868 | 1.41788 | 35894 ft | 460 kts | 317° |
| 2026-05-05 15:07 | 50.10677 | 1.35228 | 35900 ft | 460 kts | 317° |
| 2026-05-05 15:08 | 50.15486 | 1.28651 | 35887 ft | 460 kts | 316° |
| 2026-05-05 15:08 | 50.20304 | 1.22057 | 35897 ft | 460 kts | 316° |
| 2026-05-05 15:09 | 50.25109 | 1.15452 | 35908 ft | 460 kts | 317° |
| 2026-05-05 15:09 | 50.29905 | 1.08853 | 35916 ft | 459 kts | 316° |
| 2026-05-05 15:10 | 50.34670 | 1.02280 | 35258 ft | 464 kts | 316° |
| 2026-05-05 15:10 | 50.37098 | 0.98911 | 34366 ft | 469 kts | 316° |
| 2026-05-05 15:10 | 50.39545 | 0.95511 | 33529 ft | 471 kts | 316° |
| 2026-05-05 15:10 | 50.41994 | 0.92099 | 32641 ft | 471 kts | 317° |
| 2026-05-05 15:11 | 50.44445 | 0.88687 | 31826 ft | 471 kts | 317° |
| 2026-05-05 15:11 | 50.46907 | 0.85306 | 30955 ft | 471 kts | 318° |
| 2026-05-05 15:11 | 50.49404 | 0.81965 | 30021 ft | 473 kts | 319° |
| 2026-05-05 15:11 | 50.51932 | 0.78643 | 28970 ft | 474 kts | 319° |
| 2026-05-05 15:12 | 50.54463 | 0.75339 | 28138 ft | 470 kts | 319° |
| 2026-05-05 15:12 | 50.56963 | 0.72067 | 27369 ft | 465 kts | 319° |
| 2026-05-05 15:12 | 50.59434 | 0.68805 | 26597 ft | 461 kts | 319° |
| 2026-05-05 15:12 | 50.61864 | 0.65567 | 25948 ft | 454 kts | 319° |
| 2026-05-05 15:13 | 50.64249 | 0.62372 | 25321 ft | 447 kts | 319° |
| 2026-05-05 15:13 | 50.66600 | 0.59213 | 24709 ft | 440 kts | 319° |
| 2026-05-05 15:13 | 50.68911 | 0.56105 | 24121 ft | 434 kts | 319° |
| 2026-05-05 15:13 | 50.71193 | 0.53031 | 23520 ft | 429 kts | 319° |
| 2026-05-05 15:14 | 50.73447 | 0.49996 | 22830 ft | 424 kts | 319° |
| 2026-05-05 15:14 | 50.75678 | 0.46990 | 22122 ft | 420 kts | 319° |
| 2026-05-05 15:14 | 50.77889 | 0.44007 | 21472 ft | 416 kts | 320° |
| 2026-05-05 15:14 | 50.80076 | 0.41055 | 20863 ft | 412 kts | 320° |
| 2026-05-05 15:15 | 50.82244 | 0.38124 | 20245 ft | 409 kts | 320° |
| 2026-05-05 15:15 | 50.84398 | 0.35206 | 19676 ft | 406 kts | 320° |
| 2026-05-05 15:15 | 50.86534 | 0.32314 | 19261 ft | 401 kts | 320° |
| 2026-05-05 15:15 | 50.88607 | 0.29506 | 19378 ft | 385 kts | 320° |
| 2026-05-05 15:16 | 50.90630 | 0.26758 | 19632 ft | 382 kts | 320° |
| 2026-05-05 15:16 | 50.92645 | 0.24016 | 19878 ft | 383 kts | 320° |
| 2026-05-05 15:16 | 50.94666 | 0.21263 | 19988 ft | 383 kts | 320° |
| 2026-05-05 15:16 | 50.96688 | 0.18510 | 20017 ft | 383 kts | 320° |
| 2026-05-05 15:17 | 50.98705 | 0.15754 | 20022 ft | 383 kts | 320° |
| 2026-05-05 15:17 | 51.00722 | 0.12993 | 20023 ft | 383 kts | 320° |
| 2026-05-05 15:17 | 51.02822 | 0.10399 | 20024 ft | 382 kts | 326° |
| 2026-05-05 15:17 | 51.05013 | 0.07989 | 19809 ft | 383 kts | 326° |
| 2026-05-05 15:18 | 51.07194 | 0.05589 | 19584 ft | 381 kts | 326° |
| 2026-05-05 15:18 | 51.09367 | 0.03197 | 19410 ft | 380 kts | 326° |
| 2026-05-05 15:18 | 51.11536 | 0.00803 | 19235 ft | 379 kts | 326° |
| 2026-05-05 15:18 | 51.13694 | -0.01593 | 18997 ft | 378 kts | 325° |
| 2026-05-05 15:19 | 51.15847 | -0.03987 | 18826 ft | 377 kts | 325° |
| 2026-05-05 15:19 | 51.17992 | -0.06374 | 18654 ft | 376 kts | 325° |
| 2026-05-05 15:19 | 51.20137 | -0.08765 | 18487 ft | 376 kts | 326° |
| 2026-05-05 15:19 | 51.22274 | -0.11148 | 18317 ft | 375 kts | 326° |
| 2026-05-05 15:20 | 51.24406 | -0.13529 | 18139 ft | 374 kts | 326° |
| 2026-05-05 15:20 | 51.26534 | -0.15903 | 17962 ft | 372 kts | 326° |
| 2026-05-05 15:20 | 51.28654 | -0.18270 | 17794 ft | 371 kts | 326° |
| 2026-05-05 15:20 | 51.30770 | -0.20639 | 17625 ft | 371 kts | 326° |
| 2026-05-05 15:21 | 51.32850 | -0.22972 | 17462 ft | 370 kts | 325° |
| 2026-05-05 15:21 | 51.34982 | -0.25368 | 17308 ft | 369 kts | 325° |
| 2026-05-05 15:21 | 51.37084 | -0.27726 | 17148 ft | 368 kts | 325° |
| 2026-05-05 15:21 | 51.39194 | -0.30037 | 16979 ft | 367 kts | 329° |
| 2026-05-05 15:22 | 51.41522 | -0.31685 | 16821 ft | 365 kts | 344° |
| 2026-05-05 15:22 | 51.44018 | -0.32358 | 16656 ft | 364 kts | 358° |
| 2026-05-05 15:22 | 51.46499 | -0.32032 | 16490 ft | 363 kts | 12° |
| 2026-05-05 15:22 | 51.48901 | -0.30722 | 16298 ft | 361 kts | 25° |
| 2026-05-05 15:23 | 51.51147 | -0.29039 | 16133 ft | 361 kts | 25° |
| 2026-05-05 15:23 | 51.53411 | -0.27310 | 15972 ft | 360 kts | 26° |
| 2026-05-05 15:23 | 51.55661 | -0.25576 | 15805 ft | 358 kts | 26° |
| 2026-05-05 15:23 | 51.57909 | -0.23839 | 15643 ft | 358 kts | 25° |
| 2026-05-05 15:24 | 51.60152 | -0.22108 | 15556 ft | 358 kts | 25° |
| 2026-05-05 15:24 | 51.62395 | -0.20377 | 15398 ft | 357 kts | 25° |
| 2026-05-05 15:24 | 51.64631 | -0.18650 | 15234 ft | 356 kts | 25° |
| 2026-05-05 15:24 | 51.66855 | -0.16930 | 15075 ft | 351 kts | 25° |
| 2026-05-05 15:25 | 51.69013 | -0.15260 | 14952 ft | 338 kts | 25° |
| 2026-05-05 15:25 | 51.71098 | -0.13649 | 14819 ft | 327 kts | 25° |
| 2026-05-05 15:25 | 51.73114 | -0.12092 | 14699 ft | 316 kts | 25° |
| 2026-05-05 15:25 | 51.74997 | -0.10346 | 14491 ft | 310 kts | 36° |
| 2026-05-05 15:26 | 51.76575 | -0.08009 | 14222 ft | 307 kts | 46° |
| 2026-05-05 15:26 | 51.78043 | -0.05527 | 14041 ft | 305 kts | 46° |
| 2026-05-05 15:26 | 51.79510 | -0.03060 | 13871 ft | 304 kts | 45° |
| 2026-05-05 15:26 | 51.80970 | -0.00609 | 13702 ft | 303 kts | 46° |
| 2026-05-05 15:27 | 51.82443 | 0.01860 | 13503 ft | 306 kts | 45° |
| 2026-05-05 15:27 | 51.83921 | 0.04334 | 13341 ft | 306 kts | 45° |
| 2026-05-05 15:27 | 51.85395 | 0.06808 | 13181 ft | 305 kts | 45° |
| 2026-05-05 15:27 | 51.86863 | 0.09285 | 13020 ft | 305 kts | 45° |
| 2026-05-05 15:28 | 51.88325 | 0.11759 | 12858 ft | 304 kts | 46° |
| 2026-05-05 15:28 | 51.89783 | 0.14230 | 12698 ft | 303 kts | 45° |
| 2026-05-05 15:28 | 51.91246 | 0.16681 | 12537 ft | 302 kts | 43° |
| 2026-05-05 15:28 | 51.92922 | 0.18701 | 12377 ft | 300 kts | 28° |
| 2026-05-05 15:29 | 51.94805 | 0.20125 | 12209 ft | 298 kts | 22° |
| 2026-05-05 15:29 | 51.96707 | 0.21470 | 12047 ft | 298 kts | 23° |
| 2026-05-05 15:29 | 51.98601 | 0.22814 | 11884 ft | 297 kts | 22° |
| 2026-05-05 15:29 | 52.00492 | 0.24160 | 11720 ft | 296 kts | 23° |
| 2026-05-05 15:30 | 52.02372 | 0.25507 | 11551 ft | 295 kts | 23° |
| 2026-05-05 15:30 | 52.04250 | 0.26853 | 11391 ft | 294 kts | 23° |
| 2026-05-05 15:30 | 52.06126 | 0.28197 | 11228 ft | 295 kts | 22° |
| 2026-05-05 15:30 | 52.08037 | 0.29372 | 11070 ft | 293 kts | 11° |
| 2026-05-05 15:31 | 52.10051 | 0.29452 | 10913 ft | 290 kts | 348° |
| 2026-05-05 15:31 | 52.11912 | 0.28305 | 10757 ft | 286 kts | 327° |
| 2026-05-05 15:31 | 52.13370 | 0.26134 | 10604 ft | 286 kts | 306° |
| 2026-05-05 15:31 | 52.14504 | 0.23469 | 10451 ft | 286 kts | 304° |
| 2026-05-05 15:32 | 52.15625 | 0.20807 | 10292 ft | 285 kts | 304° |
| 2026-05-05 15:32 | 52.16746 | 0.18152 | 10136 ft | 283 kts | 304° |
| 2026-05-05 15:32 | 52.17861 | 0.15521 | 9985 ft | 282 kts | 305° |
| 2026-05-05 15:32 | 52.18980 | 0.12886 | 9831 ft | 282 kts | 305° |
| 2026-05-05 15:33 | 52.20092 | 0.10261 | 9662 ft | 282 kts | 304° |
| 2026-05-05 15:33 | 52.21205 | 0.07626 | 9510 ft | 283 kts | 305° |
| 2026-05-05 15:33 | 52.22320 | 0.04988 | 9358 ft | 282 kts | 305° |
| 2026-05-05 15:33 | 52.23432 | 0.02354 | 9203 ft | 282 kts | 305° |
| 2026-05-05 15:34 | 52.24530 | -0.00250 | 9028 ft | 273 kts | 305° |
| 2026-05-05 15:34 | 52.25586 | -0.02752 | 8899 ft | 262 kts | 305° |
| 2026-05-05 15:34 | 52.26580 | -0.05174 | 8767 ft | 252 kts | 300° |
| 2026-05-05 15:34 | 52.27235 | -0.07789 | 8560 ft | 246 kts | 289° |
| 2026-05-05 15:35 | 52.27766 | -0.10424 | 8474 ft | 245 kts | 289° |
| 2026-05-05 15:35 | 52.28305 | -0.13067 | 8338 ft | 245 kts | 289° |
| 2026-05-05 15:35 | 52.28654 | -0.15772 | 8184 ft | 244 kts | 269° |
| 2026-05-05 15:35 | 52.28239 | -0.18436 | 8043 ft | 246 kts | 243° |
| 2026-05-05 15:36 | 52.27095 | -0.20520 | 7952 ft | 250 kts | 213° |
| 2026-05-05 15:36 | 52.25470 | -0.21492 | 7956 ft | 253 kts | 185° |
| 2026-05-05 15:36 | 52.23712 | -0.21244 | 7960 ft | 256 kts | 169° |
| 2026-05-05 15:36 | 52.21959 | -0.20742 | 7959 ft | 255 kts | 169° |
| 2026-05-05 15:37 | 52.20215 | -0.20236 | 7959 ft | 255 kts | 169° |
| 2026-05-05 15:37 | 52.18473 | -0.19723 | 7958 ft | 253 kts | 169° |
| 2026-05-05 15:37 | 52.16745 | -0.19185 | 7850 ft | 252 kts | 169° |
| 2026-05-05 15:37 | 52.15044 | -0.18644 | 7468 ft | 253 kts | 168° |
| 2026-05-05 15:38 | 52.13299 | -0.18089 | 7141 ft | 251 kts | 168° |
| 2026-05-05 15:38 | 52.11602 | -0.17818 | 6837 ft | 248 kts | 185° |
| 2026-05-05 15:38 | 52.09947 | -0.18509 | 6492 ft | 247 kts | 206° |
| 2026-05-05 15:38 | 52.08562 | -0.20108 | 6177 ft | 244 kts | 228° |
| 2026-05-05 15:39 | 52.07442 | -0.22155 | 5960 ft | 242 kts | 230° |
| 2026-05-05 15:39 | 52.06315 | -0.24219 | 5966 ft | 246 kts | 230° |
| 2026-05-05 15:39 | 52.05180 | -0.26286 | 5745 ft | 244 kts | 229° |
| 2026-05-05 15:39 | 52.04055 | -0.28333 | 5377 ft | 243 kts | 229° |
| 2026-05-05 15:40 | 52.02931 | -0.30376 | 5074 ft | 241 kts | 229° |
| 2026-05-05 15:40 | 52.01813 | -0.32402 | 5000 ft | 242 kts | 229° |
| 2026-05-05 15:40 | 52.00684 | -0.34446 | 5005 ft | 243 kts | 229° |
| 2026-05-05 15:40 | 51.99715 | -0.36684 | 5002 ft | 242 kts | 245° |
| 2026-05-05 15:41 | 51.99155 | -0.39253 | 5010 ft | 242 kts | 256° |
| 2026-05-05 15:41 | 51.98679 | -0.41867 | 5006 ft | 241 kts | 256° |
| 2026-05-05 15:41 | 51.98149 | -0.44454 | 5004 ft | 242 kts | 246° |
| 2026-05-05 15:41 | 51.97239 | -0.46745 | 5006 ft | 242 kts | 231° |
| 2026-05-05 15:42 | 51.96186 | -0.48880 | 5005 ft | 243 kts | 233° |
| 2026-05-05 15:42 | 51.95133 | -0.51038 | 5006 ft | 244 kts | 232° |
| 2026-05-05 15:42 | 51.94080 | -0.53202 | 5006 ft | 246 kts | 233° |
| 2026-05-05 15:42 | 51.93024 | -0.55377 | 5006 ft | 245 kts | 232° |
| 2026-05-05 15:43 | 51.91974 | -0.57537 | 5001 ft | 244 kts | 233° |
| 2026-05-05 15:43 | 51.90926 | -0.59689 | 5003 ft | 243 kts | 232° |
| 2026-05-05 15:43 | 51.90042 | -0.61994 | 4998 ft | 241 kts | 249° |
| 2026-05-05 15:43 | 51.89538 | -0.64587 | 5004 ft | 242 kts | 256° |
| 2026-05-05 15:44 | 51.89083 | -0.67202 | 5000 ft | 242 kts | 256° |
| 2026-05-05 15:44 | 51.88628 | -0.69780 | 4993 ft | 232 kts | 256° |
| 2026-05-05 15:44 | 51.88189 | -0.72256 | 4996 ft | 227 kts | 256° |
| 2026-05-05 15:44 | 51.87489 | -0.74443 | 4966 ft | 215 kts | 223° |
| 2026-05-05 15:45 | 51.86187 | -0.75417 | 4798 ft | 206 kts | 182° |
| 2026-05-05 15:45 | 51.84831 | -0.74924 | 4578 ft | 200 kts | 154° |
| 2026-05-05 15:45 | 51.83520 | -0.74146 | 4346 ft | 201 kts | 162° |
| 2026-05-05 15:45 | 51.82298 | -0.73197 | 4184 ft | 193 kts | 134° |
| 2026-05-05 15:46 | 51.81666 | -0.71393 | 4059 ft | 182 kts | 96° |
| 2026-05-05 15:46 | 51.81760 | -0.69456 | 4018 ft | 169 kts | 71° |
| 2026-05-05 15:46 | 51.82076 | -0.67673 | 3982 ft | 163 kts | 71° |
| 2026-05-05 15:46 | 51.82387 | -0.65918 | 3944 ft | 163 kts | 72° |
| 2026-05-05 15:47 | 51.82699 | -0.64150 | 3804 ft | 163 kts | 72° |
| 2026-05-05 15:47 | 51.82904 | -0.62986 | 3671 ft | 163 kts | 71° |
| 2026-05-05 15:47 | 51.83317 | -0.60636 | 3392 ft | 161 kts | 71° |
| 2026-05-05 15:47 | 51.83622 | -0.58895 | 3187 ft | 161 kts | 71° |
| 2026-05-05 15:48 | 51.83926 | -0.57159 | 2968 ft | 161 kts | 72° |
| 2026-05-05 15:48 | 51.84231 | -0.55421 | 2750 ft | 160 kts | 71° |
| 2026-05-05 15:48 | 51.84533 | -0.53691 | 2538 ft | 159 kts | 71° |
| 2026-05-05 15:48 | 51.84833 | -0.51976 | 2320 ft | 159 kts | 72° |
| 2026-05-05 15:49 | 51.85134 | -0.50250 | 2109 ft | 159 kts | 72° |
| 2026-05-05 15:49 | 51.85435 | -0.48522 | 1888 ft | 159 kts | 72° |
| 2026-05-05 15:49 | 51.85734 | -0.46806 | 1673 ft | 159 kts | 71° |
| 2026-05-05 15:49 | 51.86018 | -0.45169 | 1461 ft | 142 kts | 71° |
| 2026-05-05 15:50 | 51.86273 | -0.43700 | 1264 ft | 133 kts | 70° |
| 2026-05-05 15:50 | 51.86516 | -0.42301 | 1079 ft | 127 kts | 71° |
| 2026-05-05 15:50 | 51.86759 | -0.40905 | 909 ft | 130 kts | 70° |
| 2026-05-05 15:50 | 51.86919 | -0.39981 | 794 ft | 129 kts | 71° |
| 2026-05-05 15:51 | 51.87158 | -0.38594 | 585 ft | 128 kts | 70° |
| 2026-05-05 15:51 | 51.87389 | -0.37277 | 521 ft | 103 kts | 73° |
| 2026-05-05 15:51 | 51.87554 | -0.36337 | 521 ft | 73 kts | 74° |
| 2026-05-05 15:51 | 51.87649 | -0.35878 | 516 ft | 8 kts | 14° |
| 2026-05-05 15:52 | 51.87674 | -0.35907 | 516 ft | 6 kts | 323° |
| 2026-05-05 15:52 | 51.87730 | -0.35947 | 516 ft | 11 kts | 340° |
| 2026-05-05 15:52 | 51.87784 | -0.36051 | 518 ft | 14 kts | 269° |
| 2026-05-05 15:52 | 51.87767 | -0.36168 | 518 ft | 10 kts | 253° |
| 2026-05-05 15:53 | 51.87746 | -0.36286 | 518 ft | 12 kts | 255° |
| 2026-05-05 15:53 | 51.87725 | -0.36413 | 519 ft | 12 kts | 255° |
| 2026-05-05 15:53 | 51.87704 | -0.36534 | 520 ft | 11 kts | 254° |
| 2026-05-05 15:53 | 51.87683 | -0.36652 | 521 ft | 11 kts | 255° |
| 2026-05-05 15:54 | 51.87665 | -0.36761 | 523 ft | 9 kts | 254° |
| 2026-05-05 15:54 | 51.87677 | -0.36850 | 523 ft | 10 kts | 314° |
| 2026-05-05 15:54 | 51.87761 | -0.36896 | 517 ft | 16 kts | 342° |
| 2026-05-05 15:54 | 51.87875 | -0.36959 | 512 ft | 15 kts | 342° |
| 2026-05-05 15:55 | 51.87962 | -0.37006 | 512 ft | 14 kts | 341° |
| 2026-05-05 15:55 | 51.87980 | -0.37017 | 512 ft | 1 kts | 340° |
| 2026-05-05 15:55 | 51.87988 | -0.37021 | 512 ft | 2 kts | 338° |
| 2026-05-05 15:55 | 51.87999 | -0.37040 | 512 ft | 3 kts | 309° |
| 2026-05-05 15:56 | 51.88003 | -0.37051 | 512 ft | 0 kts | 298° |
| 2026-05-05 15:56 | 51.88027 | -0.37115 | 509 ft | 16 kts | 308° |
| 2026-05-05 15:56 | 51.88127 | -0.37191 | 512 ft | 15 kts | 341° |
| 2026-05-05 15:57 | 51.88211 | -0.37237 | 517 ft | 12 kts | 340° |
| 2026-05-05 15:57 | 51.88229 | -0.37343 | 517 ft | 14 kts | 253° |
| 2026-05-05 15:57 | 51.88210 | -0.37530 | 516 ft | 19 kts | 279° |
| 2026-05-05 15:57 | 51.88167 | -0.37703 | 523 ft | 15 kts | 239° |
| 2026-05-05 15:58 | 51.88095 | -0.37837 | 523 ft | 16 kts | 218° |
| 2026-05-05 15:58 | 51.88012 | -0.37944 | 523 ft | 10 kts | 218° |
| 2026-05-05 15:58 | 51.87981 | -0.37946 | 523 ft | 2 kts | 141° |
| 2026-05-05 15:58 | 51.87967 | -0.37923 | 523 ft | 3 kts | 127° |
| 2026-05-05 15:59 | 51.87957 | -0.37902 | 523 ft | 0 kts | 125° |
| 2026-05-05 16:01 | 51.87958 | -0.37902 | 524 ft | 0 kts | 125° |
| 2026-05-05 16:02 | 51.87958 | -0.37903 | 523 ft | 0 kts | 124° |